Lockney, Texas
Current Conditions -  °F | °C
As of 6:15 PM on Sunday 23 Nov 2014 (Local Time) from KPVW Reporting Station
Broken Clouds Broken Clouds  
Wind Chill: 35°   Ceiling: 6000
Heat Index: 41°   Visibility: 10mi
Dew Point: 28°   Wind: 10mph
Humidity: 60%   Direction: 330°NNW
Pressure: 29.83"   Gusts: NA
Location:  34.12°N, 101.44°W
Report Text: KPVW 240015Z AUTO 33009KT 10SM SCT047 BKN060 BKN095 05/M02 A2983 RMK AO2 T00521020
Loading
Personal Weather Stations






























Interactive Weather Map New forecast layout! Learn more

10-Day Weather Forecast

Advertisements
Track Severe Weather on mobile